createdAt,value
2022-10-28T00:01:21.350Z,101169.66
2022-10-28T00:03:57.490Z,101170.44
2022-10-28T00:06:31.789Z,101169.28
2022-10-28T00:09:08.246Z,101167.28
2022-10-28T00:11:41.875Z,101165.25
2022-10-28T00:14:14.102Z,101175.00
2022-10-28T00:16:46.140Z,101173.00
2022-10-28T00:19:17.062Z,101172.56
2022-10-28T00:21:47.822Z,101166.44
2022-10-28T00:24:18.563Z,101168.81
2022-10-28T00:26:50.092Z,101166.38
2022-10-28T00:29:22.483Z,101161.91
2022-10-28T00:31:54.782Z,101165.16
2022-10-28T00:34:24.854Z,101157.41
2022-10-28T00:36:55.176Z,101163.50
2022-10-28T00:39:28.114Z,101159.78
2022-10-28T00:42:04.008Z,101155.72
2022-10-28T00:45:01.473Z,101154.47
2022-10-28T00:47:43.268Z,101145.53
2022-10-28T00:50:30.282Z,101147.97
2022-10-28T00:53:05.551Z,101147.19
2022-10-28T00:55:39.958Z,101139.13
2022-10-28T00:58:13.144Z,101139.91
2022-10-28T01:00:43.703Z,101140.34
2022-10-28T01:03:15.769Z,101134.28
2022-10-28T01:05:50.388Z,101139.94
2022-10-28T01:08:23.649Z,101129.81
2022-10-28T01:11:23.017Z,101127.38
2022-10-28T01:14:22.403Z,101126.94
2022-10-28T01:17:22.789Z,101120.84
2022-10-28T01:20:53.296Z,101123.66
2022-10-28T01:23:35.689Z,101122.00
2022-10-28T01:27:03.584Z,101117.94
2022-10-28T01:30:10.144Z,101110.66
2022-10-28T01:33:04.466Z,101107.81
2022-10-28T01:35:46.006Z,101106.63
2022-10-28T01:38:37.044Z,101100.94
2022-10-28T01:41:17.488Z,101108.25
2022-10-28T01:43:57.718Z,101102.97
2022-10-28T01:46:37.504Z,101100.94
2022-10-28T01:49:21.571Z,101106.56
2022-10-28T01:51:58.058Z,101107.34
2022-10-28T01:54:33.911Z,101111.34
2022-10-28T01:57:08.531Z,101099.19
2022-10-28T01:59:43.013Z,101105.59
2022-10-28T02:02:13.567Z,101105.19
2022-10-28T02:04:45.789Z,101110.84
2022-10-28T02:07:17.483Z,101106.38
2022-10-28T02:10:09.817Z,101107.56
2022-10-28T02:12:41.959Z,101099.88
2022-10-28T02:15:45.152Z,101108.31
2022-10-28T02:18:33.888Z,101107.81
2022-10-28T02:21:14.872Z,101103.31
2022-10-28T02:23:56.227Z,101099.22
2022-10-28T02:26:37.356Z,101100.81
2022-10-28T02:29:25.386Z,101100.38
2022-10-28T02:32:00.970Z,101101.19
2022-10-28T02:34:38.104Z,101108.03
2022-10-28T02:37:18.689Z,101101.53
2022-10-28T02:39:55.138Z,101098.72
2022-10-28T02:42:30.484Z,101113.25
2022-10-28T02:45:08.963Z,101112.88
2022-10-28T02:47:50.389Z,101098.72
2022-10-28T02:50:28.590Z,101101.19
2022-10-28T02:53:04.751Z,101111.28
2022-10-28T02:55:43.360Z,101108.88
2022-10-28T02:58:14.391Z,101109.72
2022-10-28T03:00:50.371Z,101108.91
2022-10-28T03:03:20.954Z,101108.13
2022-10-28T03:05:50.886Z,101106.91
2022-10-28T03:08:25.302Z,101108.97
2022-10-28T03:10:55.156Z,101107.34
2022-10-28T03:13:25.623Z,101107.34
2022-10-28T03:15:56.094Z,101104.88
2022-10-28T03:18:26.555Z,101112.59
2022-10-28T03:20:59.166Z,101110.13
2022-10-28T03:23:31.335Z,101120.19
2022-10-28T03:26:01.538Z,101118.56
2022-10-28T03:28:32.033Z,101108.44
2022-10-28T03:31:02.514Z,101112.88
2022-10-28T03:33:33.032Z,101103.94
2022-10-28T03:36:03.335Z,101110.78
2022-10-28T03:38:35.883Z,101111.63
2022-10-28T03:41:05.675Z,101112.44
2022-10-28T03:43:37.308Z,101116.47
2022-10-28T03:46:08.226Z,101119.69
2022-10-28T03:48:38.465Z,101106.28
2022-10-28T03:51:09.775Z,101111.53
2022-10-28T03:53:41.467Z,101115.56
2022-10-28T03:56:13.846Z,101115.94
2022-10-28T03:58:44.384Z,101123.22
2022-10-28T04:01:14.740Z,101120.78
2022-10-28T04:03:45.111Z,101125.63
2022-10-28T04:06:15.365Z,101123.63
2022-10-28T04:08:47.529Z,101116.75
2022-10-28T04:11:18.080Z,101119.59
2022-10-28T04:13:48.527Z,101126.91
2022-10-28T04:16:18.362Z,101125.63
2022-10-28T04:18:48.405Z,101122.38
2022-10-28T04:21:18.433Z,101121.56
2022-10-28T04:23:50.307Z,101126.41
2022-10-28T04:26:22.856Z,101121.13
2022-10-28T04:28:53.219Z,101134.03
2022-10-28T04:31:23.883Z,101129.56
2022-10-28T04:33:54.214Z,101124.28
2022-10-28T04:36:24.638Z,101133.97
2022-10-28T04:38:57.287Z,101127.53
2022-10-28T04:41:27.507Z,101132.75
2022-10-28T04:43:58.028Z,101130.34
2022-10-28T04:46:27.697Z,101127.13
2022-10-28T04:48:57.552Z,101130.84
2022-10-28T04:51:28.357Z,101132.91
2022-10-28T04:54:00.200Z,101137.44
2022-10-28T04:56:31.507Z,101142.38
2022-10-28T04:59:02.053Z,101143.28
2022-10-28T05:01:32.615Z,101143.00
2022-10-28T05:04:02.547Z,101139.88
2022-10-28T05:06:33.866Z,101141.22
2022-10-28T05:09:06.503Z,101143.75
2022-10-28T05:11:37.045Z,101146.28
2022-10-28T05:14:07.517Z,101146.34
2022-10-28T05:16:37.819Z,101143.97
2022-10-28T05:19:08.434Z,101146.50
2022-10-28T05:21:38.872Z,101144.22
2022-10-28T05:24:12.363Z,101144.34
2022-10-28T05:26:44.074Z,101145.28
2022-10-28T05:29:14.485Z,101144.16
2022-10-28T05:31:44.970Z,101145.94
2022-10-28T05:34:15.324Z,101147.25
2022-10-28T05:36:46.163Z,101144.91
2022-10-28T05:39:18.517Z,101133.63
2022-10-28T05:41:49.246Z,101147.50
2022-10-28T05:44:19.359Z,101138.25
2022-10-28T05:46:49.836Z,101141.16
2022-10-28T05:49:20.826Z,101143.22
2022-10-28T05:51:50.874Z,101141.25
2022-10-28T05:54:22.586Z,101138.50
2022-10-28T05:56:53.101Z,101138.53
2022-10-28T05:59:26.858Z,101139.38
2022-10-28T06:02:00.994Z,101136.56
2022-10-28T06:04:31.841Z,101136.59
2022-10-28T06:07:02.309Z,101138.63
2022-10-28T06:09:34.701Z,101138.66
2022-10-28T06:12:03.798Z,101135.78
2022-10-28T06:14:34.442Z,101145.16
2022-10-28T06:17:04.707Z,101145.16
2022-10-28T06:19:35.803Z,101142.28
2022-10-28T06:22:06.434Z,101143.09
2022-10-28T06:24:39.127Z,101137.38
2022-10-28T06:27:09.768Z,101143.47
2022-10-28T06:29:40.388Z,101149.56
2022-10-28T06:32:12.786Z,101149.50
2022-10-28T06:34:42.908Z,101148.25
2022-10-28T06:37:13.470Z,101149.44
2022-10-28T06:39:50.195Z,101153.88
2022-10-28T06:42:21.051Z,101156.34
2022-10-28T06:44:51.560Z,101155.06
2022-10-28T06:47:23.522Z,101152.97
2022-10-28T06:49:54.033Z,101152.50
2022-10-28T06:52:24.767Z,101149.22
2022-10-28T06:54:57.640Z,101151.56
2022-10-28T06:57:29.327Z,101150.75
2022-10-28T07:00:00.483Z,101151.53
2022-10-28T07:02:31.853Z,101144.16
2022-10-28T07:05:02.686Z,101140.06
2022-10-28T07:07:33.725Z,101134.72
2022-10-28T07:10:06.563Z,101134.31
2022-10-28T07:12:37.920Z,101137.09
2022-10-28T07:15:10.067Z,101132.94
2022-10-28T07:17:41.594Z,101133.28
2022-10-28T07:20:14.109Z,101138.97
2022-10-28T07:22:44.252Z,101133.19
2022-10-28T07:25:16.413Z,101131.06
2022-10-28T07:27:46.969Z,101135.91
2022-10-28T07:30:17.569Z,101132.97
2022-10-28T07:32:48.465Z,101129.22
2022-10-28T07:35:19.288Z,101127.53
2022-10-28T07:37:50.215Z,101123.78
2022-10-28T07:40:23.820Z,101118.84
2022-10-28T07:42:54.704Z,101119.19
2022-10-28T07:45:25.127Z,101113.38
2022-10-28T07:47:55.810Z,101114.94
2022-10-28T07:50:26.543Z,101107.06
2022-10-28T07:52:58.169Z,101104.94
2022-10-28T07:55:30.687Z,101111.41
2022-10-28T07:58:01.964Z,101108.44
2022-10-28T08:00:32.786Z,101102.25
2022-10-28T08:03:05.239Z,101107.88
2022-10-28T08:05:35.924Z,101101.22
2022-10-28T08:08:06.517Z,101101.13
2022-10-28T08:10:39.929Z,101096.50
2022-10-28T08:13:11.479Z,101092.00
2022-10-28T08:15:42.042Z,101087.06
2022-10-28T08:18:12.105Z,101083.75
2022-10-28T08:20:42.769Z,101089.88
2022-10-28T08:23:12.939Z,101082.50
2022-10-28T08:25:51.181Z,101076.78
2022-10-28T08:28:22.111Z,101078.84
2022-10-28T08:31:04.242Z,101073.13
2022-10-28T08:33:39.488Z,101069.84
2022-10-28T08:36:12.221Z,101072.38
2022-10-28T08:38:45.590Z,101070.03
2022-10-28T08:41:38.449Z,101064.72
2022-10-28T08:44:37.134Z,101063.53
2022-10-28T08:47:26.550Z,101060.28
2022-10-28T08:50:04.569Z,101064.03
2022-10-28T08:52:44.050Z,101060.03
2022-10-28T08:55:22.662Z,101051.56
2022-10-28T08:58:00.101Z,101050.00
2022-10-28T09:00:34.805Z,101054.53
2022-10-28T09:03:23.179Z,101050.91
2022-10-28T09:06:03.749Z,101051.38
2022-10-28T09:15:22.890Z,101042.66
2022-10-28T09:17:58.701Z,101043.94
2022-10-28T09:20:50.821Z,101041.13
2022-10-28T09:23:27.231Z,101041.19
2022-10-28T09:29:28.504Z,101033.97
2022-10-28T09:35:08.901Z,101021.84
2022-10-28T09:37:44.242Z,101025.13
2022-10-28T09:40:22.455Z,101021.50
2022-10-28T09:43:03.750Z,101013.41
2022-10-28T09:45:38.652Z,101009.44
2022-10-28T09:51:24.026Z,101008.75
2022-10-28T09:54:00.626Z,101012.47
2022-10-28T09:56:33.900Z,101003.09
2022-10-28T09:59:05.738Z,101002.31
2022-10-28T10:04:31.796Z,101009.81
2022-10-28T10:12:36.710Z,100988.81
2022-10-28T10:18:05.428Z,100977.13
2022-10-28T10:20:53.330Z,100977.16
2022-10-28T10:23:32.837Z,100978.00
2022-10-28T10:26:11.104Z,100977.19
2022-10-28T10:28:48.814Z,100970.31
2022-10-28T10:31:25.327Z,100972.00
2022-10-28T10:33:58.377Z,100972.44
2022-10-28T10:36:31.899Z,100971.69
2022-10-28T10:39:05.540Z,100973.31
2022-10-28T10:41:41.538Z,100968.84
2022-10-28T10:44:37.665Z,100974.19
2022-10-28T10:47:35.986Z,100967.31
2022-10-28T10:53:38.161Z,100962.50
2022-10-28T11:01:54.283Z,100967.53
2022-10-28T11:04:28.997Z,100963.06
2022-10-28T11:07:01.287Z,100964.72
2022-10-28T11:09:39.029Z,100966.75
2022-10-28T11:12:18.717Z,100954.97
2022-10-28T11:15:00.157Z,100956.63
2022-10-28T11:20:31.476Z,100955.81
2022-10-28T11:23:26.806Z,100950.16
2022-10-28T11:26:07.663Z,100952.59
2022-10-28T11:32:21.905Z,100950.19
2022-10-28T11:38:46.540Z,100943.72
2022-10-28T11:41:44.862Z,100938.84
2022-10-28T11:44:35.236Z,100944.56
2022-10-28T11:47:32.159Z,100934.81
2022-10-28T11:50:37.462Z,100948.66
2022-10-28T11:53:50.283Z,100938.91
2022-10-28T11:56:34.725Z,100940.56
2022-10-28T11:59:50.214Z,100945.84
2022-10-28T12:02:47.082Z,100937.31
2022-10-28T12:05:29.149Z,100949.09
2022-10-28T12:08:21.836Z,100945.88
2022-10-28T12:11:18.479Z,100941.78
2022-10-28T12:13:59.919Z,100943.44
2022-10-28T12:19:41.950Z,100942.63
2022-10-28T12:22:22.724Z,100941.81
2022-10-28T12:24:56.045Z,100946.28
2022-10-28T12:27:32.837Z,100942.25
2022-10-28T12:30:11.904Z,100943.47
2022-10-28T12:32:48.228Z,100938.16
2022-10-28T12:35:27.102Z,100940.63
2022-10-28T12:38:08.653Z,100941.03
2022-10-28T12:40:47.681Z,100941.44
2022-10-28T12:43:26.372Z,100935.75
2022-10-28T12:46:00.908Z,100930.88
2022-10-28T12:48:42.630Z,100925.16
2022-10-28T12:51:20.016Z,100922.34
2022-10-28T12:54:00.999Z,100919.09
2022-10-28T12:56:40.329Z,100923.97
2022-10-28T12:59:19.815Z,100922.34
2022-10-28T13:04:43.113Z,100919.91
2022-10-28T13:11:25.025Z,100916.25
2022-10-28T13:14:05.053Z,100915.84
2022-10-28T13:17:04.227Z,100920.75
2022-10-28T13:23:16.400Z,100926.88
2022-10-28T13:26:10.273Z,100915.88
2022-10-28T13:28:49.892Z,100926.47
2022-10-28T13:31:22.037Z,100921.16
2022-10-28T13:33:58.573Z,100919.97
2022-10-28T13:36:35.934Z,100926.50
2022-10-28T13:39:25.223Z,100925.28
2022-10-28T13:42:46.884Z,100917.56
2022-10-28T13:45:53.914Z,100927.72
2022-10-28T13:48:49.798Z,100920.41
2022-10-28T13:55:00.068Z,100924.47
2022-10-28T13:57:38.881Z,100931.38
2022-10-28T14:00:38.771Z,100925.69
2022-10-28T14:06:09.442Z,100929.34
2022-10-28T14:08:44.756Z,100932.59
2022-10-28T14:11:26.139Z,100931.38
2022-10-28T14:14:01.962Z,100929.34
2022-10-28T14:19:26.759Z,100937.09
2022-10-28T14:24:50.997Z,100946.03
2022-10-28T14:27:54.072Z,100933.03
2022-10-28T14:33:27.368Z,100949.69
2022-10-28T14:36:27.999Z,100944.41
2022-10-28T14:39:39.416Z,100947.25
2022-10-28T14:42:48.035Z,100946.06
2022-10-28T14:45:32.403Z,100944.84
2022-10-28T14:48:59.402Z,100948.91
2022-10-28T14:51:43.021Z,100948.91
2022-10-28T14:54:22.959Z,100954.56
2022-10-28T15:02:40.869Z,100951.31
2022-10-28T15:05:20.744Z,100961.88
2022-10-28T15:10:47.278Z,100954.16
2022-10-28T15:16:08.919Z,100960.25
2022-10-28T15:18:39.457Z,100963.91
2022-10-28T15:21:16.390Z,100967.56
2022-10-28T15:26:36.303Z,100970.81
2022-10-28T15:29:07.066Z,100973.66
2022-10-28T15:31:57.872Z,100966.34
2022-10-28T15:34:32.776Z,100966.75
2022-10-28T15:37:05.768Z,100970.00
2022-10-28T15:39:42.129Z,100973.25
2022-10-28T15:42:42.526Z,100976.50
2022-10-28T15:48:22.883Z,100980.97
2022-10-28T15:51:15.830Z,100974.06
2022-10-28T15:53:47.687Z,100972.00
2022-10-28T15:56:26.606Z,100974.47
2022-10-28T15:59:20.369Z,100972.00
2022-10-28T16:01:51.052Z,100972.44
2022-10-28T16:04:47.505Z,100979.34
2022-10-28T16:07:18.861Z,100977.72
2022-10-28T16:09:52.557Z,100977.72
2022-10-28T16:12:29.217Z,100979.75
2022-10-28T16:15:04.754Z,100985.44
2022-10-28T16:17:43.848Z,100991.91
2022-10-28T16:20:19.524Z,100982.97
2022-10-28T16:22:53.821Z,100988.66
2022-10-28T16:25:25.297Z,100989.91
2022-10-28T16:30:47.129Z,100989.50
2022-10-28T16:33:17.667Z,100988.66
2022-10-28T16:35:49.127Z,100992.34
2022-10-28T16:38:20.018Z,100990.28
2022-10-28T16:40:52.538Z,100985.81
2022-10-28T16:43:35.162Z,100978.50
2022-10-28T16:46:06.843Z,100984.63
2022-10-28T16:54:14.681Z,100989.09
2022-10-28T16:56:47.936Z,100987.03
2022-10-28T16:59:27.822Z,100987.03
2022-10-28T17:02:05.304Z,100984.63
2022-10-28T17:04:40.569Z,100988.25
2022-10-28T17:07:20.561Z,100979.34
2022-10-28T17:09:54.498Z,100990.28
2022-10-28T17:12:30.270Z,100989.88
2022-10-28T17:15:06.753Z,100987.03
2022-10-28T17:17:38.956Z,100992.72
2022-10-28T17:20:11.654Z,100989.88
2022-10-28T17:22:43.221Z,100995.94
2022-10-28T17:25:13.677Z,100995.13
2022-10-28T17:27:49.109Z,100988.63
2022-10-28T17:30:24.289Z,100997.16
2022-10-28T17:32:58.169Z,100992.28
2022-10-28T17:35:29.564Z,100990.66
2022-10-28T17:38:01.851Z,100993.91
2022-10-28T17:40:33.573Z,100987.44
2022-10-28T17:46:07.086Z,100994.72
2022-10-28T17:48:40.405Z,100992.28
2022-10-28T17:54:01.366Z,100989.03
2022-10-28T17:56:33.613Z,100983.34
2022-10-28T18:01:58.568Z,100977.66
2022-10-28T18:04:32.806Z,100971.19
2022-10-28T18:07:04.484Z,100978.06
2022-10-28T18:09:36.109Z,100977.66
2022-10-28T18:12:07.551Z,100980.09
2022-10-28T18:14:41.785Z,100979.66
2022-10-28T18:17:17.876Z,100976.03
2022-10-28T18:19:49.939Z,100972.78
2022-10-28T18:25:13.064Z,100973.19
2022-10-28T18:27:44.375Z,100965.88
2022-10-28T18:33:19.237Z,100957.72
2022-10-28T18:35:51.794Z,100953.25
2022-10-28T18:38:25.065Z,100955.72
2022-10-28T18:40:57.041Z,100960.19
2022-10-28T18:43:29.538Z,100956.09
2022-10-28T18:46:06.080Z,100963.84
2022-10-28T18:48:39.747Z,100963.41
2022-10-28T18:51:13.922Z,100965.03
2022-10-28T18:53:46.611Z,100967.88
2022-10-28T18:59:09.347Z,100970.72
2022-10-28T19:04:36.621Z,100964.25
2022-10-28T19:07:09.294Z,100962.63
2022-10-28T19:09:41.408Z,100964.25
2022-10-28T19:15:01.730Z,100975.59
2022-10-28T19:17:32.273Z,100962.63
2022-10-28T19:20:06.001Z,100972.75
2022-10-28T19:22:39.195Z,100966.66
2022-10-28T19:25:12.699Z,100971.53
2022-10-28T19:27:44.979Z,100967.09
2022-10-28T19:30:17.219Z,100963.41
2022-10-28T19:32:49.034Z,100972.34
2022-10-28T19:35:25.135Z,100960.16
2022-10-28T19:40:44.486Z,100954.47
2022-10-28T19:46:13.663Z,100958.09
2022-10-28T19:51:40.078Z,100945.53
2022-10-28T19:54:14.859Z,100953.25
2022-10-28T19:56:47.904Z,100966.63
2022-10-28T19:59:18.352Z,100958.09
2022-10-28T20:01:49.576Z,100957.31
2022-10-28T20:04:22.441Z,100955.25
2022-10-28T20:06:59.148Z,100961.78
2022-10-28T20:09:29.493Z,100960.56
2022-10-28T20:12:02.318Z,100968.63
2022-10-28T20:17:21.427Z,100969.00
2022-10-28T20:19:51.503Z,100961.31
2022-10-28T20:22:23.284Z,100954.00
2022-10-28T20:24:53.939Z,100954.38
2022-10-28T20:27:24.499Z,100955.59
2022-10-28T20:32:42.930Z,100943.44
2022-10-28T20:35:13.777Z,100946.28
2022-10-28T20:37:45.889Z,100954.78
2022-10-28T20:40:16.765Z,100950.31
2022-10-28T20:48:22.151Z,100957.19
2022-10-28T20:50:55.112Z,100956.34
2022-10-28T20:53:31.595Z,100963.25
2022-10-28T20:56:02.191Z,100965.69
2022-10-28T20:58:35.860Z,100968.91
2022-10-28T21:01:09.615Z,100958.78
2022-10-28T21:03:40.547Z,100961.22
2022-10-28T21:08:49.294Z,100962.00
2022-10-28T21:11:20.843Z,100964.00
2022-10-28T21:13:53.816Z,100964.44
2022-10-28T21:16:25.248Z,100962.81
2022-10-28T21:18:56.392Z,100966.84
2022-10-28T21:21:28.229Z,100959.53
2022-10-28T21:24:00.802Z,100962.00
2022-10-28T21:26:31.261Z,100961.56
2022-10-28T21:29:01.779Z,100957.50
2022-10-28T21:31:31.907Z,100953.84
2022-10-28T21:36:49.601Z,100948.56
2022-10-28T21:39:21.632Z,100948.91
2022-10-28T21:41:52.247Z,100946.06
2022-10-28T21:44:22.978Z,100948.13
2022-10-28T21:46:55.085Z,100951.31
2022-10-28T21:49:25.218Z,100944.06
2022-10-28T21:51:55.824Z,100941.59
2022-10-28T21:54:27.676Z,100939.97
2022-10-28T21:56:57.475Z,100940.78
2022-10-28T22:02:15.335Z,100932.63
2022-10-28T22:04:46.359Z,100934.69
2022-10-28T22:07:17.818Z,100924.13
2022-10-28T22:09:49.672Z,100942.78
2022-10-28T22:12:19.553Z,100929.81
2022-10-28T22:17:38.506Z,100929.38
2022-10-28T22:20:11.313Z,100922.50
2022-10-28T22:25:31.137Z,100927.38
2022-10-28T22:28:01.189Z,100927.38
2022-10-28T22:30:32.117Z,100926.53
2022-10-28T22:33:02.933Z,100920.88
2022-10-28T22:35:33.037Z,100924.13
2022-10-28T22:38:03.078Z,100924.53
2022-10-28T22:40:35.329Z,100917.22
2022-10-28T22:43:05.074Z,100920.06
2022-10-28T22:45:35.519Z,100919.22
2022-10-28T22:50:53.158Z,100922.47
2022-10-28T22:53:24.198Z,100923.28
2022-10-28T22:55:57.284Z,100919.63
2022-10-28T22:58:29.809Z,100921.63
2022-10-28T23:01:09.892Z,100920.03
2022-10-28T23:06:30.748Z,100922.84
2022-10-28T23:14:37.307Z,100920.81
2022-10-28T23:17:08.350Z,100921.19
2022-10-28T23:19:38.881Z,100911.88
2022-10-28T23:22:09.515Z,100909.47
2022-10-28T23:24:40.402Z,100917.53
2022-10-28T23:27:12.832Z,100915.09
2022-10-28T23:29:43.552Z,100906.56
2022-10-28T23:32:13.684Z,100905.75
2022-10-28T23:34:43.644Z,100897.25
2022-10-28T23:37:13.659Z,100896.84
2022-10-28T23:45:20.684Z,100898.38
2022-10-28T23:47:51.159Z,100902.47
2022-10-28T23:50:21.008Z,100900.81
2022-10-28T23:52:57.727Z,100898.78
2022-10-28T23:55:28.462Z,100896.31
2022-10-28T23:58:01.380Z,100894.69
